首页
METAR-TAF:

METAR-TAF

机场 :

奥斯陆加勒穆恩机场

奥斯陆, 挪威

纬度: 60-12N, 经度: 011-05E, 海拔: 208米

当前天气观测

该预报发布于25分钟前的19:50 UTC
风速1节,风向多变
温度 -3°C
湿度 93%
气压 1032 hPa
能见度10公里或以上
1500米以下无云,无积雨云

METAR: ENGM 201950Z VRB01KT CAVOK M03/M04 Q1032 NOSIG

时间: 21:15 (20:15 UTC)

预报

预报有效从20日的 18点(UTC)到 21日的 18点(UTC)
风速8节,风向北转东北
能见度10公里或以上
少量云层高于2000英尺
成为
从 20日的 21点(UTC)到 20日的 23点(UTC)
多云层高于1200英尺
几率 40% :
短暂存在
从 20日的 23点(UTC)到 21日的 09点(UTC)
阴天层高于800英尺
短暂存在
从 21日的 09点(UTC)到 21日的 18点(UTC)
多云层高于1800英尺

TAF: ENGM 2018/2118 02008KT 9999 FEW020 BECMG 2021/2023 BKN012 PROB40 TEMPO 2023/2109 OVC008 TEMPO 2109/2118 BKN018

超过4000个机场的气象观测和天气预报(METAR&TAF报告)。

可查询的气象台以黄色和红色小点在地图上表示。

将鼠标移到小点上方,可查看气象台名称。

然后点击查看天气观测和预报。

如需切换地图:点击带黑十字的绿色按钮放大地图;点击带横线的绿色按钮缩小地图;或者点击绿色箭头查看邻近地区的地图。


METAR-TAF: